sensor_id;sensor_type;location;lat;lon;timestamp;temperature;humidity
13707;DHT22;6925;47.816;13.072;2023-06-04T00:02:06;18.40;50.70
13707;DHT22;6925;47.816;13.072;2023-06-04T00:04:33;18.40;50.60
13707;DHT22;6925;47.816;13.072;2023-06-04T00:07:00;18.40;51.10
13707;DHT22;6925;47.816;13.072;2023-06-04T00:09:27;18.30;51.20
13707;DHT22;6925;47.816;13.072;2023-06-04T00:11:55;18.30;51.20
13707;DHT22;6925;47.816;13.072;2023-06-04T00:14:23;18.30;51.60
13707;DHT22;6925;47.816;13.072;2023-06-04T00:16:50;18.30;52.00
13707;DHT22;6925;47.816;13.072;2023-06-04T00:19:17;18.30;52.10
13707;DHT22;6925;47.816;13.072;2023-06-04T00:21:45;18.30;51.90
13707;DHT22;6925;47.816;13.072;2023-06-04T00:24:12;18.40;52.20
13707;DHT22;6925;47.816;13.072;2023-06-04T00:26:39;18.40;52.50
13707;DHT22;6925;47.816;13.072;2023-06-04T00:29:08;18.40;52.40
13707;DHT22;6925;47.816;13.072;2023-06-04T00:31:35;18.40;52.30
13707;DHT22;6925;47.816;13.072;2023-06-04T00:34:03;18.30;52.00
13707;DHT22;6925;47.816;13.072;2023-06-04T00:36:30;18.30;52.30
13707;DHT22;6925;47.816;13.072;2023-06-04T00:38:57;18.20;52.30
13707;DHT22;6925;47.816;13.072;2023-06-04T00:41:24;18.20;52.10
13707;DHT22;6925;47.816;13.072;2023-06-04T00:43:52;18.20;52.30
13707;DHT22;6925;47.816;13.072;2023-06-04T00:46:25;18.20;52.50
13707;DHT22;6925;47.816;13.072;2023-06-04T00:48:52;18.20;52.70
13707;DHT22;6925;47.816;13.072;2023-06-04T00:51:20;18.20;52.70
13707;DHT22;6925;47.816;13.072;2023-06-04T00:53:49;18.20;52.60
13707;DHT22;6925;47.816;13.072;2023-06-04T00:56:16;18.20;52.60
13707;DHT22;6925;47.816;13.072;2023-06-04T00:58:44;18.20;52.70
13707;DHT22;6925;47.816;13.072;2023-06-04T01:01:17;18.20;52.70
13707;DHT22;6925;47.816;13.072;2023-06-04T01:03:51;18.20;52.40
13707;DHT22;6925;47.816;13.072;2023-06-04T01:06:22;18.20;52.70
13707;DHT22;6925;47.816;13.072;2023-06-04T01:08:54;18.20;52.60
13707;DHT22;6925;47.816;13.072;2023-06-04T01:11:33;18.20;52.40
13707;DHT22;6925;47.816;13.072;2023-06-04T01:14:00;18.20;52.30
13707;DHT22;6925;47.816;13.072;2023-06-04T01:16:30;18.20;52.10
13707;DHT22;6925;47.816;13.072;2023-06-04T01:19:01;18.20;52.10
13707;DHT22;6925;47.816;13.072;2023-06-04T01:21:30;18.10;52.20
13707;DHT22;6925;47.816;13.072;2023-06-04T01:24:01;18.10;52.10
13707;DHT22;6925;47.816;13.072;2023-06-04T01:26:32;18.10;52.30
13707;DHT22;6925;47.816;13.072;2023-06-04T01:29:01;18.10;52.30
13707;DHT22;6925;47.816;13.072;2023-06-04T01:31:28;18.10;52.70
13707;DHT22;6925;47.816;13.072;2023-06-04T01:33:59;18.10;52.90
13707;DHT22;6925;47.816;13.072;2023-06-04T01:36:27;18.10;53.80
13707;DHT22;6925;47.816;13.072;2023-06-04T01:38:54;18.10;52.60
13707;DHT22;6925;47.816;13.072;2023-06-04T01:41:22;18.10;52.90
13707;DHT22;6925;47.816;13.072;2023-06-04T01:43:49;18.10;52.70
13707;DHT22;6925;47.816;13.072;2023-06-04T01:46:16;18.00;52.70
13707;DHT22;6925;47.816;13.072;2023-06-04T01:48:43;18.00;52.90
13707;DHT22;6925;47.816;13.072;2023-06-04T01:51:15;18.00;53.00
13707;DHT22;6925;47.816;13.072;2023-06-04T01:53:42;17.90;53.10
13707;DHT22;6925;47.816;13.072;2023-06-04T01:56:09;17.90;53.60
13707;DHT22;6925;47.816;13.072;2023-06-04T01:58:37;17.90;53.50
13707;DHT22;6925;47.816;13.072;2023-06-04T02:01:04;17.90;53.50
13707;DHT22;6925;47.816;13.072;2023-06-04T02:03:32;17.90;53.60
13707;DHT22;6925;47.816;13.072;2023-06-04T02:06:03;17.90;53.70
13707;DHT22;6925;47.816;13.072;2023-06-04T02:08:34;17.90;53.80
13707;DHT22;6925;47.816;13.072;2023-06-04T02:11:01;17.90;53.60
13707;DHT22;6925;47.816;13.072;2023-06-04T02:13:28;17.90;53.60
13707;DHT22;6925;47.816;13.072;2023-06-04T02:15:55;17.90;53.30
13707;DHT22;6925;47.816;13.072;2023-06-04T02:18:22;17.80;53.30
13707;DHT22;6925;47.816;13.072;2023-06-04T02:20:51;17.80;53.70
13707;DHT22;6925;47.816;13.072;2023-06-04T02:23:19;17.90;54.50
13707;DHT22;6925;47.816;13.072;2023-06-04T02:25:48;17.90;54.20
13707;DHT22;6925;47.816;13.072;2023-06-04T02:28:15;17.90;53.90
13707;DHT22;6925;47.816;13.072;2023-06-04T02:30:43;17.90;54.10
13707;DHT22;6925;47.816;13.072;2023-06-04T02:33:10;17.90;54.50
13707;DHT22;6925;47.816;13.072;2023-06-04T02:35:37;18.00;54.60
13707;DHT22;6925;47.816;13.072;2023-06-04T02:38:04;17.90;54.00
13707;DHT22;6925;47.816;13.072;2023-06-04T02:40:31;17.90;53.50
13707;DHT22;6925;47.816;13.072;2023-06-04T02:43:00;17.90;53.80
13707;DHT22;6925;47.816;13.072;2023-06-04T02:45:27;17.90;54.20
13707;DHT22;6925;47.816;13.072;2023-06-04T02:47:54;18.00;54.30
13707;DHT22;6925;47.816;13.072;2023-06-04T02:50:21;17.90;53.80
13707;DHT22;6925;47.816;13.072;2023-06-04T02:52:48;18.00;54.70
13707;DHT22;6925;47.816;13.072;2023-06-04T02:55:15;18.00;54.10
13707;DHT22;6925;47.816;13.072;2023-06-04T02:57:42;17.90;54.20
13707;DHT22;6925;47.816;13.072;2023-06-04T03:00:13;18.00;54.40
13707;DHT22;6925;47.816;13.072;2023-06-04T03:02:41;17.90;54.00
13707;DHT22;6925;47.816;13.072;2023-06-04T03:05:09;18.00;54.30
13707;DHT22;6925;47.816;13.072;2023-06-04T03:07:38;18.00;54.10
13707;DHT22;6925;47.816;13.072;2023-06-04T03:10:07;18.00;54.00
13707;DHT22;6925;47.816;13.072;2023-06-04T03:12:34;18.00;54.50
13707;DHT22;6925;47.816;13.072;2023-06-04T03:15:01;18.10;54.30
13707;DHT22;6925;47.816;13.072;2023-06-04T03:17:30;18.10;54.00
13707;DHT22;6925;47.816;13.072;2023-06-04T03:19:58;18.10;54.40
13707;DHT22;6925;47.816;13.072;2023-06-04T03:22:25;18.00;54.70
13707;DHT22;6925;47.816;13.072;2023-06-04T03:24:52;18.00;54.40
13707;DHT22;6925;47.816;13.072;2023-06-04T03:27:19;18.00;54.30
13707;DHT22;6925;47.816;13.072;2023-06-04T03:29:46;18.10;54.50
13707;DHT22;6925;47.816;13.072;2023-06-04T03:32:13;18.10;55.40
13707;DHT22;6925;47.816;13.072;2023-06-04T03:34:43;18.10;55.20
13707;DHT22;6925;47.816;13.072;2023-06-04T03:37:10;18.00;54.70
13707;DHT22;6925;47.816;13.072;2023-06-04T03:39:37;18.10;55.00
13707;DHT22;6925;47.816;13.072;2023-06-04T03:42:04;18.10;54.70
13707;DHT22;6925;47.816;13.072;2023-06-04T03:44:31;18.10;54.80
13707;DHT22;6925;47.816;13.072;2023-06-04T03:46:58;18.00;53.70
13707;DHT22;6925;47.816;13.072;2023-06-04T03:49:25;18.00;53.60
13707;DHT22;6925;47.816;13.072;2023-06-04T03:51:53;17.90;54.00
13707;DHT22;6925;47.816;13.072;2023-06-04T03:54:21;17.90;55.00
13707;DHT22;6925;47.816;13.072;2023-06-04T03:56:48;17.90;55.40
13707;DHT22;6925;47.816;13.072;2023-06-04T03:59:15;17.90;55.70
13707;DHT22;6925;47.816;13.072;2023-06-04T04:01:42;17.90;55.80
13707;DHT22;6925;47.816;13.072;2023-06-04T04:04:10;18.00;55.90
13707;DHT22;6925;47.816;13.072;2023-06-04T04:06:37;18.00;56.10
13707;DHT22;6925;47.816;13.072;2023-06-04T04:09:05;18.00;55.90
13707;DHT22;6925;47.816;13.072;2023-06-04T04:11:33;18.10;55.70
13707;DHT22;6925;47.816;13.072;2023-06-04T04:14:00;18.00;56.20
13707;DHT22;6925;47.816;13.072;2023-06-04T04:16:27;18.10;56.00
13707;DHT22;6925;47.816;13.072;2023-06-04T04:18:54;18.10;56.00
13707;DHT22;6925;47.816;13.072;2023-06-04T04:21:22;18.00;55.90
13707;DHT22;6925;47.816;13.072;2023-06-04T04:23:49;18.00;56.10
13707;DHT22;6925;47.816;13.072;2023-06-04T04:26:18;18.00;56.20
13707;DHT22;6925;47.816;13.072;2023-06-04T04:28:45;18.00;56.10
13707;DHT22;6925;47.816;13.072;2023-06-04T04:31:12;18.00;56.00
13707;DHT22;6925;47.816;13.072;2023-06-04T04:33:40;18.00;56.00
13707;DHT22;6925;47.816;13.072;2023-06-04T04:36:07;18.10;55.90
13707;DHT22;6925;47.816;13.072;2023-06-04T04:38:38;18.10;56.10
13707;DHT22;6925;47.816;13.072;2023-06-04T04:41:06;18.10;56.00
13707;DHT22;6925;47.816;13.072;2023-06-04T04:43:36;18.10;56.20
13707;DHT22;6925;47.816;13.072;2023-06-04T04:46:05;18.10;56.40
13707;DHT22;6925;47.816;13.072;2023-06-04T04:48:32;18.20;56.10
13707;DHT22;6925;47.816;13.072;2023-06-04T04:50:59;18.20;55.90
13707;DHT22;6925;47.816;13.072;2023-06-04T04:53:26;18.20;56.00
13707;DHT22;6925;47.816;13.072;2023-06-04T04:55:54;18.20;55.90
13707;DHT22;6925;47.816;13.072;2023-06-04T04:58:20;18.20;56.20
13707;DHT22;6925;47.816;13.072;2023-06-04T05:00:49;18.20;57.00
13707;DHT22;6925;47.816;13.072;2023-06-04T05:03:16;18.30;57.20
13707;DHT22;6925;47.816;13.072;2023-06-04T05:05:43;18.30;57.20
13707;DHT22;6925;47.816;13.072;2023-06-04T05:08:10;18.30;57.20
13707;DHT22;6925;47.816;13.072;2023-06-04T05:10:37;18.30;57.60
13707;DHT22;6925;47.816;13.072;2023-06-04T05:13:04;18.30;57.80
13707;DHT22;6925;47.816;13.072;2023-06-04T05:15:32;18.40;57.50
13707;DHT22;6925;47.816;13.072;2023-06-04T05:18:00;18.40;57.60
13707;DHT22;6925;47.816;13.072;2023-06-04T05:20:29;18.40;57.40
13707;DHT22;6925;47.816;13.072;2023-06-04T05:22:56;18.30;58.00
13707;DHT22;6925;47.816;13.072;2023-06-04T05:25:23;18.20;58.20
13707;DHT22;6925;47.816;13.072;2023-06-04T05:27:52;18.20;58.70
13707;DHT22;6925;47.816;13.072;2023-06-04T05:30:20;18.20;58.70
13707;DHT22;6925;47.816;13.072;2023-06-04T05:32:47;18.30;58.60
13707;DHT22;6925;47.816;13.072;2023-06-04T05:35:17;18.30;59.00
13707;DHT22;6925;47.816;13.072;2023-06-04T05:37:44;18.40;59.20
13707;DHT22;6925;47.816;13.072;2023-06-04T05:40:19;18.50;60.00
13707;DHT22;6925;47.816;13.072;2023-06-04T05:42:47;18.60;59.90
13707;DHT22;6925;47.816;13.072;2023-06-04T05:45:15;18.70;59.70
13707;DHT22;6925;47.816;13.072;2023-06-04T05:47:42;18.70;59.10
13707;DHT22;6925;47.816;13.072;2023-06-04T05:50:09;18.80;58.10
13707;DHT22;6925;47.816;13.072;2023-06-04T05:52:38;18.80;58.30
13707;DHT22;6925;47.816;13.072;2023-06-04T05:55:06;18.80;58.00
13707;DHT22;6925;47.816;13.072;2023-06-04T05:57:34;18.80;58.30
13707;DHT22;6925;47.816;13.072;2023-06-04T06:00:01;18.90;58.60
13707;DHT22;6925;47.816;13.072;2023-06-04T06:02:29;18.90;58.80
13707;DHT22;6925;47.816;13.072;2023-06-04T06:04:58;18.90;57.50
13707;DHT22;6925;47.816;13.072;2023-06-04T06:07:25;18.90;57.80
13707;DHT22;6925;47.816;13.072;2023-06-04T06:09:53;19.00;57.60
13707;DHT22;6925;47.816;13.072;2023-06-04T06:12:21;19.00;57.70
13707;DHT22;6925;47.816;13.072;2023-06-04T06:14:48;19.00;56.90
13707;DHT22;6925;47.816;13.072;2023-06-04T06:17:15;18.90;56.40
13707;DHT22;6925;47.816;13.072;2023-06-04T06:19:42;18.80;55.90
13707;DHT22;6925;47.816;13.072;2023-06-04T06:22:09;18.80;56.50
13707;DHT22;6925;47.816;13.072;2023-06-04T06:24:36;18.90;57.00
13707;DHT22;6925;47.816;13.072;2023-06-04T06:27:05;18.90;57.10
13707;DHT22;6925;47.816;13.072;2023-06-04T06:29:32;19.00;56.70
13707;DHT22;6925;47.816;13.072;2023-06-04T06:32:00;19.00;57.00
13707;DHT22;6925;47.816;13.072;2023-06-04T06:34:27;19.00;56.50
13707;DHT22;6925;47.816;13.072;2023-06-04T06:36:54;19.10;57.00
13707;DHT22;6925;47.816;13.072;2023-06-04T06:39:21;19.10;57.70
13707;DHT22;6925;47.816;13.072;2023-06-04T06:41:48;19.20;57.50
13707;DHT22;6925;47.816;13.072;2023-06-04T06:44:16;19.30;56.80
13707;DHT22;6925;47.816;13.072;2023-06-04T06:46:44;19.30;56.30
13707;DHT22;6925;47.816;13.072;2023-06-04T06:49:11;19.30;56.20
13707;DHT22;6925;47.816;13.072;2023-06-04T06:51:37;19.30;55.80
13707;DHT22;6925;47.816;13.072;2023-06-04T06:54:05;19.40;55.90
13707;DHT22;6925;47.816;13.072;2023-06-04T06:56:32;19.40;55.20
13707;DHT22;6925;47.816;13.072;2023-06-04T06:58:58;19.30;55.50
13707;DHT22;6925;47.816;13.072;2023-06-04T07:01:27;19.40;55.60
13707;DHT22;6925;47.816;13.072;2023-06-04T07:03:55;19.40;55.60
13707;DHT22;6925;47.816;13.072;2023-06-04T07:06:21;19.50;56.00
13707;DHT22;6925;47.816;13.072;2023-06-04T07:08:48;19.60;55.70
13707;DHT22;6925;47.816;13.072;2023-06-04T07:11:16;19.70;56.00
13707;DHT22;6925;47.816;13.072;2023-06-04T07:13:43;19.70;55.80
13707;DHT22;6925;47.816;13.072;2023-06-04T07:16:10;19.80;56.40
13707;DHT22;6925;47.816;13.072;2023-06-04T07:18:39;19.90;57.90
13707;DHT22;6925;47.816;13.072;2023-06-04T07:21:06;19.90;57.50
13707;DHT22;6925;47.816;13.072;2023-06-04T07:23:32;20.10;58.20
13707;DHT22;6925;47.816;13.072;2023-06-04T07:25:59;20.20;57.90
13707;DHT22;6925;47.816;13.072;2023-06-04T07:28:26;20.20;56.60
13707;DHT22;6925;47.816;13.072;2023-06-04T07:30:53;20.20;57.30
13707;DHT22;6925;47.816;13.072;2023-06-04T07:33:20;20.20;57.10
13707;DHT22;6925;47.816;13.072;2023-06-04T07:35:49;20.30;56.90
13707;DHT22;6925;47.816;13.072;2023-06-04T07:38:16;20.30;57.40
13707;DHT22;6925;47.816;13.072;2023-06-04T07:40:44;20.30;56.60
13707;DHT22;6925;47.816;13.072;2023-06-04T07:43:13;20.30;56.70
13707;DHT22;6925;47.816;13.072;2023-06-04T07:45:40;20.40;56.50
13707;DHT22;6925;47.816;13.072;2023-06-04T07:48:08;20.50;56.70
13707;DHT22;6925;47.816;13.072;2023-06-04T07:50:35;20.50;56.10
13707;DHT22;6925;47.816;13.072;2023-06-04T07:53:04;20.50;55.70
13707;DHT22;6925;47.816;13.072;2023-06-04T07:55:32;20.50;56.50
13707;DHT22;6925;47.816;13.072;2023-06-04T07:57:59;20.50;55.70
13707;DHT22;6925;47.816;13.072;2023-06-04T08:00:26;20.50;55.60
13707;DHT22;6925;47.816;13.072;2023-06-04T08:02:53;20.50;55.80
13707;DHT22;6925;47.816;13.072;2023-06-04T08:05:20;20.70;56.20
13707;DHT22;6925;47.816;13.072;2023-06-04T08:07:47;20.60;55.20
13707;DHT22;6925;47.816;13.072;2023-06-04T08:10:15;20.70;56.30
13707;DHT22;6925;47.816;13.072;2023-06-04T08:12:42;20.70;55.60
13707;DHT22;6925;47.816;13.072;2023-06-04T08:15:09;20.70;55.80
13707;DHT22;6925;47.816;13.072;2023-06-04T08:17:36;20.70;54.70
13707;DHT22;6925;47.816;13.072;2023-06-04T08:20:03;20.70;55.10
13707;DHT22;6925;47.816;13.072;2023-06-04T08:22:32;20.70;55.30
13707;DHT22;6925;47.816;13.072;2023-06-04T08:24:59;20.70;54.80
13707;DHT22;6925;47.816;13.072;2023-06-04T08:27:28;20.70;55.50
13707;DHT22;6925;47.816;13.072;2023-06-04T08:29:55;20.70;55.50
13707;DHT22;6925;47.816;13.072;2023-06-04T08:32:21;20.80;55.50
13707;DHT22;6925;47.816;13.072;2023-06-04T08:34:48;20.90;56.30
13707;DHT22;6925;47.816;13.072;2023-06-04T08:37:16;21.10;56.70
13707;DHT22;6925;47.816;13.072;2023-06-04T08:39:43;21.30;55.60
13707;DHT22;6925;47.816;13.072;2023-06-04T08:42:18;21.40;55.10
13707;DHT22;6925;47.816;13.072;2023-06-04T08:44:51;21.40;53.90
13707;DHT22;6925;47.816;13.072;2023-06-04T08:47:20;21.30;55.40
13707;DHT22;6925;47.816;13.072;2023-06-04T08:49:51;21.40;54.20
13707;DHT22;6925;47.816;13.072;2023-06-04T08:52:18;21.50;54.40
13707;DHT22;6925;47.816;13.072;2023-06-04T08:54:48;21.60;55.10
13707;DHT22;6925;47.816;13.072;2023-06-04T08:57:18;21.70;53.80
13707;DHT22;6925;47.816;13.072;2023-06-04T08:59:46;21.80;54.90
13707;DHT22;6925;47.816;13.072;2023-06-04T09:02:14;21.90;54.40
13707;DHT22;6925;47.816;13.072;2023-06-04T09:04:42;22.00;54.00
13707;DHT22;6925;47.816;13.072;2023-06-04T09:07:12;22.10;54.30
13707;DHT22;6925;47.816;13.072;2023-06-04T09:09:41;22.20;53.20
13707;DHT22;6925;47.816;13.072;2023-06-04T09:12:14;22.20;52.40
13707;DHT22;6925;47.816;13.072;2023-06-04T09:14:44;22.20;52.00
13707;DHT22;6925;47.816;13.072;2023-06-04T09:17:11;22.20;51.50
13707;DHT22;6925;47.816;13.072;2023-06-04T09:19:39;22.20;53.10
13707;DHT22;6925;47.816;13.072;2023-06-04T09:22:06;22.40;53.40
13707;DHT22;6925;47.816;13.072;2023-06-04T09:24:41;22.50;51.60
13707;DHT22;6925;47.816;13.072;2023-06-04T09:27:12;22.60;51.40
13707;DHT22;6925;47.816;13.072;2023-06-04T09:29:39;22.50;51.60
13707;DHT22;6925;47.816;13.072;2023-06-04T09:32:06;22.60;51.20
13707;DHT22;6925;47.816;13.072;2023-06-04T09:34:33;22.70;51.20
13707;DHT22;6925;47.816;13.072;2023-06-04T09:37:14;22.70;49.80
13707;DHT22;6925;47.816;13.072;2023-06-04T09:39:41;22.60;49.20
13707;DHT22;6925;47.816;13.072;2023-06-04T09:42:08;22.50;49.50
13707;DHT22;6925;47.816;13.072;2023-06-04T09:44:43;22.50;50.30
13707;DHT22;6925;47.816;13.072;2023-06-04T09:47:11;22.70;50.60
13707;DHT22;6925;47.816;13.072;2023-06-04T09:49:41;22.80;51.00
13707;DHT22;6925;47.816;13.072;2023-06-04T09:52:10;23.00;51.10
13707;DHT22;6925;47.816;13.072;2023-06-04T09:54:39;23.20;51.10
13707;DHT22;6925;47.816;13.072;2023-06-04T09:57:14;23.50;51.70
13707;DHT22;6925;47.816;13.072;2023-06-04T09:59:44;23.60;50.60
13707;DHT22;6925;47.816;13.072;2023-06-04T10:02:12;23.70;50.20
13707;DHT22;6925;47.816;13.072;2023-06-04T10:04:41;23.80;50.80
13707;DHT22;6925;47.816;13.072;2023-06-04T10:07:11;23.90;50.50
13707;DHT22;6925;47.816;13.072;2023-06-04T10:09:43;24.10;49.20
13707;DHT22;6925;47.816;13.072;2023-06-04T10:12:14;24.10;50.20
13707;DHT22;6925;47.816;13.072;2023-06-04T10:14:45;24.30;50.10
13707;DHT22;6925;47.816;13.072;2023-06-04T10:17:15;24.40;49.10
13707;DHT22;6925;47.816;13.072;2023-06-04T10:19:44;24.50;50.00
13707;DHT22;6925;47.816;13.072;2023-06-04T10:22:13;24.60;50.10
13707;DHT22;6925;47.816;13.072;2023-06-04T10:24:40;24.70;49.60
13707;DHT22;6925;47.816;13.072;2023-06-04T10:27:07;24.80;49.30
13707;DHT22;6925;47.816;13.072;2023-06-04T10:29:37;25.00;49.40
13707;DHT22;6925;47.816;13.072;2023-06-04T10:32:04;25.10;49.10
13707;DHT22;6925;47.816;13.072;2023-06-04T10:34:32;25.20;48.50
13707;DHT22;6925;47.816;13.072;2023-06-04T10:36:59;25.20;47.60
13707;DHT22;6925;47.816;13.072;2023-06-04T10:39:28;25.30;47.80
13707;DHT22;6925;47.816;13.072;2023-06-04T10:41:59;25.30;46.70
13707;DHT22;6925;47.816;13.072;2023-06-04T10:44:27;25.30;47.50
13707;DHT22;6925;47.816;13.072;2023-06-04T10:46:54;25.40;48.50
13707;DHT22;6925;47.816;13.072;2023-06-04T10:49:27;25.40;47.00
13707;DHT22;6925;47.816;13.072;2023-06-04T10:51:55;25.50;47.50
13707;DHT22;6925;47.816;13.072;2023-06-04T10:54:30;25.40;46.70
13707;DHT22;6925;47.816;13.072;2023-06-04T10:57:10;25.50;47.60
13707;DHT22;6925;47.816;13.072;2023-06-04T10:59:38;25.60;46.90
13707;DHT22;6925;47.816;13.072;2023-06-04T11:02:06;25.60;46.30
13707;DHT22;6925;47.816;13.072;2023-06-04T11:04:33;25.50;46.10
13707;DHT22;6925;47.816;13.072;2023-06-04T11:07:01;25.60;47.00
13707;DHT22;6925;47.816;13.072;2023-06-04T11:09:30;25.70;47.40
13707;DHT22;6925;47.816;13.072;2023-06-04T11:11:58;25.70;46.70
13707;DHT22;6925;47.816;13.072;2023-06-04T11:14:25;25.80;46.20
13707;DHT22;6925;47.816;13.072;2023-06-04T11:16:53;25.80;45.50
13707;DHT22;6925;47.816;13.072;2023-06-04T11:19:20;25.80;45.40
13707;DHT22;6925;47.816;13.072;2023-06-04T11:21:47;25.90;46.20
13707;DHT22;6925;47.816;13.072;2023-06-04T11:24:16;25.90;46.60
13707;DHT22;6925;47.816;13.072;2023-06-04T11:26:45;26.00;47.00
13707;DHT22;6925;47.816;13.072;2023-06-04T11:29:14;26.10;46.40
13707;DHT22;6925;47.816;13.072;2023-06-04T11:31:42;26.30;46.50
13707;DHT22;6925;47.816;13.072;2023-06-04T11:34:10;26.30;45.90
13707;DHT22;6925;47.816;13.072;2023-06-04T11:36:39;26.40;45.80
13707;DHT22;6925;47.816;13.072;2023-06-04T11:39:06;26.50;44.20
13707;DHT22;6925;47.816;13.072;2023-06-04T11:41:35;26.50;44.90
13707;DHT22;6925;47.816;13.072;2023-06-04T11:44:05;26.50;43.50
13707;DHT22;6925;47.816;13.072;2023-06-04T11:46:33;26.60;44.50
13707;DHT22;6925;47.816;13.072;2023-06-04T11:49:00;26.60;44.60
13707;DHT22;6925;47.816;13.072;2023-06-04T11:51:29;26.70;44.60
13707;DHT22;6925;47.816;13.072;2023-06-04T11:53:57;26.70;44.50
13707;DHT22;6925;47.816;13.072;2023-06-04T11:56:25;26.80;44.30
13707;DHT22;6925;47.816;13.072;2023-06-04T11:58:54;26.80;44.10
13707;DHT22;6925;47.816;13.072;2023-06-04T12:01:23;26.80;43.90
13707;DHT22;6925;47.816;13.072;2023-06-04T12:03:54;26.80;43.80
13707;DHT22;6925;47.816;13.072;2023-06-04T12:06:21;26.80;44.40
13707;DHT22;6925;47.816;13.072;2023-06-04T12:08:49;26.90;44.30
13707;DHT22;6925;47.816;13.072;2023-06-04T12:11:28;26.80;44.50
13707;DHT22;6925;47.816;13.072;2023-06-04T12:13:57;26.90;44.10
13707;DHT22;6925;47.816;13.072;2023-06-04T12:16:27;27.00;44.90
13707;DHT22;6925;47.816;13.072;2023-06-04T12:19:05;27.00;43.40
13707;DHT22;6925;47.816;13.072;2023-06-04T12:21:33;27.00;44.30
13707;DHT22;6925;47.816;13.072;2023-06-04T12:24:07;27.10;43.50
13707;DHT22;6925;47.816;13.072;2023-06-04T12:26:35;27.20;44.40
13707;DHT22;6925;47.816;13.072;2023-06-04T12:29:10;27.20;44.10
13707;DHT22;6925;47.816;13.072;2023-06-04T12:31:39;27.30;43.50
13707;DHT22;6925;47.816;13.072;2023-06-04T12:34:06;27.30;43.30
13707;DHT22;6925;47.816;13.072;2023-06-04T12:36:34;27.30;43.30
13707;DHT22;6925;47.816;13.072;2023-06-04T12:39:02;27.50;44.40
13707;DHT22;6925;47.816;13.072;2023-06-04T12:41:30;27.70;44.00
13707;DHT22;6925;47.816;13.072;2023-06-04T12:43:59;27.90;44.20
13707;DHT22;6925;47.816;13.072;2023-06-04T12:46:26;28.00;44.10
13707;DHT22;6925;47.816;13.072;2023-06-04T12:48:55;28.20;43.90
13707;DHT22;6925;47.816;13.072;2023-06-04T12:51:22;28.40;43.10
13707;DHT22;6925;47.816;13.072;2023-06-04T12:53:49;28.50;40.70
13707;DHT22;6925;47.816;13.072;2023-06-04T12:56:16;28.60;41.60
13707;DHT22;6925;47.816;13.072;2023-06-04T12:58:43;28.70;41.90
13707;DHT22;6925;47.816;13.072;2023-06-04T13:01:10;28.90;43.20
13707;DHT22;6925;47.816;13.072;2023-06-04T13:03:40;29.10;42.90
13707;DHT22;6925;47.816;13.072;2023-06-04T13:06:08;29.20;41.70
13707;DHT22;6925;47.816;13.072;2023-06-04T13:08:36;29.30;40.40
13707;DHT22;6925;47.816;13.072;2023-06-04T13:11:03;29.30;41.40
13707;DHT22;6925;47.816;13.072;2023-06-04T13:13:31;29.50;41.30
13707;DHT22;6925;47.816;13.072;2023-06-04T13:15:58;29.60;40.70
13707;DHT22;6925;47.816;13.072;2023-06-04T13:18:25;29.70;40.70
13707;DHT22;6925;47.816;13.072;2023-06-04T13:20:53;29.80;40.60
13707;DHT22;6925;47.816;13.072;2023-06-04T13:23:21;29.90;40.50
13707;DHT22;6925;47.816;13.072;2023-06-04T13:25:48;30.00;39.20
13707;DHT22;6925;47.816;13.072;2023-06-04T13:28:16;30.00;40.40
13707;DHT22;6925;47.816;13.072;2023-06-04T13:30:43;30.00;39.10
13707;DHT22;6925;47.816;13.072;2023-06-04T13:33:11;29.90;40.50
13707;DHT22;6925;47.816;13.072;2023-06-04T13:35:38;30.00;40.00
13707;DHT22;6925;47.816;13.072;2023-06-04T13:38:06;30.00;39.50
13707;DHT22;6925;47.816;13.072;2023-06-04T13:40:35;30.10;39.60
13707;DHT22;6925;47.816;13.072;2023-06-04T13:43:02;30.10;39.00
13707;DHT22;6925;47.816;13.072;2023-06-04T13:45:29;30.20;39.80
13707;DHT22;6925;47.816;13.072;2023-06-04T13:47:56;30.30;38.70
13707;DHT22;6925;47.816;13.072;2023-06-04T13:50:28;30.30;38.40
13707;DHT22;6925;47.816;13.072;2023-06-04T13:52:55;30.20;38.70
13707;DHT22;6925;47.816;13.072;2023-06-04T13:55:22;30.40;39.30
13707;DHT22;6925;47.816;13.072;2023-06-04T13:57:51;30.40;39.20
13707;DHT22;6925;47.816;13.072;2023-06-04T14:00:18;30.40;38.60
13707;DHT22;6925;47.816;13.072;2023-06-04T14:02:46;30.30;38.90
13707;DHT22;6925;47.816;13.072;2023-06-04T14:05:13;30.30;38.70
13707;DHT22;6925;47.816;13.072;2023-06-04T14:07:41;30.30;39.60
13707;DHT22;6925;47.816;13.072;2023-06-04T14:10:09;30.20;38.80
13707;DHT22;6925;47.816;13.072;2023-06-04T14:12:37;30.20;38.40
13707;DHT22;6925;47.816;13.072;2023-06-04T14:15:07;30.00;38.90
13707;DHT22;6925;47.816;13.072;2023-06-04T14:17:35;30.10;40.20
13707;DHT22;6925;47.816;13.072;2023-06-04T14:20:02;30.10;39.90
13707;DHT22;6925;47.816;13.072;2023-06-04T14:22:33;30.20;40.00
13707;DHT22;6925;47.816;13.072;2023-06-04T14:25:01;30.20;38.90
13707;DHT22;6925;47.816;13.072;2023-06-04T14:27:28;30.20;39.60
13707;DHT22;6925;47.816;13.072;2023-06-04T14:29:55;30.10;40.10
13707;DHT22;6925;47.816;13.072;2023-06-04T14:32:23;30.10;39.30
13707;DHT22;6925;47.816;13.072;2023-06-04T14:34:51;29.90;39.30
13707;DHT22;6925;47.816;13.072;2023-06-04T14:37:18;29.70;39.30
13707;DHT22;6925;47.816;13.072;2023-06-04T14:39:46;29.60;40.00
13707;DHT22;6925;47.816;13.072;2023-06-04T14:42:13;29.40;39.50
13707;DHT22;6925;47.816;13.072;2023-06-04T14:44:41;29.30;39.40
13707;DHT22;6925;47.816;13.072;2023-06-04T14:47:08;29.10;39.60
13707;DHT22;6925;47.816;13.072;2023-06-04T14:49:36;28.90;41.20
13707;DHT22;6925;47.816;13.072;2023-06-04T14:52:04;28.70;40.70
13707;DHT22;6925;47.816;13.072;2023-06-04T14:54:31;28.50;41.60
13707;DHT22;6925;47.816;13.072;2023-06-04T14:56:58;28.30;41.50
13707;DHT22;6925;47.816;13.072;2023-06-04T14:59:25;28.10;41.40
13707;DHT22;6925;47.816;13.072;2023-06-04T15:01:53;27.90;41.70
13707;DHT22;6925;47.816;13.072;2023-06-04T15:04:20;27.80;42.10
13707;DHT22;6925;47.816;13.072;2023-06-04T15:06:49;27.60;42.40
13707;DHT22;6925;47.816;13.072;2023-06-04T15:09:16;27.50;42.20
13707;DHT22;6925;47.816;13.072;2023-06-04T15:11:43;27.30;43.60
13707;DHT22;6925;47.816;13.072;2023-06-04T15:14:10;27.20;43.30
13707;DHT22;6925;47.816;13.072;2023-06-04T15:16:37;27.10;43.50
13707;DHT22;6925;47.816;13.072;2023-06-04T15:19:04;27.00;43.40
13707;DHT22;6925;47.816;13.072;2023-06-04T15:21:32;26.90;43.30
13707;DHT22;6925;47.816;13.072;2023-06-04T15:24:00;26.70;43.70
13707;DHT22;6925;47.816;13.072;2023-06-04T15:26:27;26.50;43.10
13707;DHT22;6925;47.816;13.072;2023-06-04T15:28:54;26.40;43.40
13707;DHT22;6925;47.816;13.072;2023-06-04T15:31:22;26.30;43.80
13707;DHT22;6925;47.816;13.072;2023-06-04T15:33:50;26.20;42.90
13707;DHT22;6925;47.816;13.072;2023-06-04T15:36:17;26.10;42.80